sensor_id;sensor_type;location;lat;lon;timestamp;pressure;altitude;pressure_sealevel;temperature;humidity
15914;BME280;8055;51.930;8.840;2023-12-20T00:01:02;76304.78;;;-145.72;100.00
15914;BME280;8055;51.930;8.840;2023-12-20T00:03:28;76306.84;;;-145.72;100.00
15914;BME280;8055;51.930;8.840;2023-12-20T00:05:53;76308.94;;;-145.72;100.00
15914;BME280;8055;51.930;8.840;2023-12-20T00:08:18;76319.28;;;-145.72;100.00
15914;BME280;8055;51.930;8.840;2023-12-20T00:10:44;76325.47;;;-145.72;100.00
15914;BME280;8055;51.930;8.840;2023-12-20T00:13:10;76337.91;;;-145.72;100.00
15914;BME280;8055;51.930;8.840;2023-12-20T00:15:35;76342.03;;;-145.72;100.00
15914;BME280;8055;51.930;8.840;2023-12-20T00:18:01;76339.97;;;-145.72;100.00
15914;BME280;8055;51.930;8.840;2023-12-20T00:20:27;76350.31;;;-145.72;100.00
15914;BME280;8055;51.930;8.840;2023-12-20T00:22:55;76360.66;;;-145.72;100.00
15914;BME280;8055;51.930;8.840;2023-12-20T00:25:21;76366.88;;;-145.72;100.00
15914;BME280;8055;51.930;8.840;2023-12-20T00:27:46;76366.88;;;-145.72;100.00
15914;BME280;8055;51.930;8.840;2023-12-20T00:30:11;76360.66;;;-145.72;100.00
15914;BME280;8055;51.930;8.840;2023-12-20T00:32:37;76373.09;;;-145.72;100.00
15914;BME280;8055;51.930;8.840;2023-12-20T00:35:03;76385.50;;;-145.72;100.00
15914;BME280;8055;51.930;8.840;2023-12-20T00:37:28;76391.72;;;-145.72;100.00
15914;BME280;8055;51.930;8.840;2023-12-20T00:39:54;76395.84;;;-145.72;100.00
15914;BME280;8055;51.930;8.840;2023-12-20T00:42:19;76400.00;;;-145.72;100.00
15914;BME280;8055;51.930;8.840;2023-12-20T00:44:44;76402.06;;;-145.72;100.00
15914;BME280;8055;51.930;8.840;2023-12-20T00:47:10;76404.13;;;-145.72;100.00
15914;BME280;8055;51.930;8.840;2023-12-20T00:49:35;76404.13;;;-145.72;100.00
15914;BME280;8055;51.930;8.840;2023-12-20T00:52:00;76393.78;;;-145.72;100.00
15914;BME280;8055;51.930;8.840;2023-12-20T00:54:26;76410.34;;;-145.72;100.00
15914;BME280;8055;51.930;8.840;2023-12-20T00:56:51;76416.53;;;-145.72;100.00
15914;BME280;8055;51.930;8.840;2023-12-20T00:59:16;76416.53;;;-145.72;100.00
15914;BME280;8055;51.930;8.840;2023-12-20T01:01:43;76414.47;;;-145.72;100.00
15914;BME280;8055;51.930;8.840;2023-12-20T01:04:08;76418.63;;;-145.72;100.00
15914;BME280;8055;51.930;8.840;2023-12-20T01:06:33;76412.41;;;-145.72;100.00
15914;BME280;8055;51.930;8.840;2023-12-20T01:08:59;76412.41;;;-145.72;100.00
15914;BME280;8055;51.930;8.840;2023-12-20T01:11:24;76420.69;;;-145.72;100.00
15914;BME280;8055;51.930;8.840;2023-12-20T01:13:49;76416.53;;;-145.72;100.00
15914;BME280;8055;51.930;8.840;2023-12-20T01:16:15;76410.34;;;-145.72;100.00
15914;BME280;8055;51.930;8.840;2023-12-20T01:18:40;76412.41;;;-145.72;100.00
15914;BME280;8055;51.930;8.840;2023-12-20T01:21:06;76404.13;;;-145.72;100.00
15914;BME280;8055;51.930;8.840;2023-12-20T01:23:32;76408.25;;;-145.72;100.00
15914;BME280;8055;51.930;8.840;2023-12-20T01:25:57;76416.53;;;-145.72;100.00
15914;BME280;8055;51.930;8.840;2023-12-20T01:28:25;76422.75;;;-145.72;100.00
15914;BME280;8055;51.930;8.840;2023-12-20T01:30:50;76426.91;;;-145.72;100.00
15914;BME280;8055;51.930;8.840;2023-12-20T01:33:15;76428.97;;;-145.72;100.00
15914;BME280;8055;51.930;8.840;2023-12-20T01:35:41;76428.97;;;-145.72;100.00
15914;BME280;8055;51.930;8.840;2023-12-20T01:38:06;76433.09;;;-145.72;100.00
15914;BME280;8055;51.930;8.840;2023-12-20T01:40:32;76433.09;;;-145.72;100.00
15914;BME280;8055;51.930;8.840;2023-12-20T01:43:07;76428.97;;;-145.72;100.00
15914;BME280;8055;51.930;8.840;2023-12-20T01:45:33;76435.16;;;-145.72;100.00
15914;BME280;8055;51.930;8.840;2023-12-20T01:47:59;76433.09;;;-145.72;100.00
15914;BME280;8055;51.930;8.840;2023-12-20T01:50:25;76437.25;;;-145.72;100.00
15914;BME280;8055;51.930;8.840;2023-12-20T01:52:52;76437.25;;;-145.72;100.00
15914;BME280;8055;51.930;8.840;2023-12-20T01:55:21;76431.03;;;-145.72;100.00
15914;BME280;8055;51.930;8.840;2023-12-20T01:57:46;76433.09;;;-145.72;100.00
15914;BME280;8055;51.930;8.840;2023-12-20T02:00:13;76443.44;;;-145.72;100.00
15914;BME280;8055;51.930;8.840;2023-12-20T02:02:40;76441.38;;;-145.72;100.00
15914;BME280;8055;51.930;8.840;2023-12-20T02:05:06;76453.78;;;-145.72;100.00
15914;BME280;8055;51.930;8.840;2023-12-20T02:07:32;76433.09;;;-145.72;100.00
15914;BME280;8055;51.930;8.840;2023-12-20T02:09:58;76437.25;;;-145.72;100.00
15914;BME280;8055;51.930;8.840;2023-12-20T02:12:23;76428.97;;;-145.72;100.00
15914;BME280;8055;51.930;8.840;2023-12-20T02:14:49;76433.09;;;-145.72;100.00
15914;BME280;8055;51.930;8.840;2023-12-20T02:17:15;76431.03;;;-145.72;100.00
15914;BME280;8055;51.930;8.840;2023-12-20T02:19:44;76431.03;;;-145.72;100.00
15914;BME280;8055;51.930;8.840;2023-12-20T02:22:12;76433.09;;;-145.72;100.00
15914;BME280;8055;51.930;8.840;2023-12-20T02:24:38;76443.44;;;-145.72;100.00
15914;BME280;8055;51.930;8.840;2023-12-20T02:27:06;76441.38;;;-145.72;100.00
15914;BME280;8055;51.930;8.840;2023-12-20T02:29:34;76443.44;;;-145.72;100.00
15914;BME280;8055;51.930;8.840;2023-12-20T02:32:00;76445.53;;;-145.72;100.00
15914;BME280;8055;51.930;8.840;2023-12-20T02:34:26;76447.59;;;-145.72;100.00
15914;BME280;8055;51.930;8.840;2023-12-20T02:36:51;76437.25;;;-145.72;100.00
15914;BME280;8055;51.930;8.840;2023-12-20T02:39:17;76445.53;;;-145.72;100.00
15914;BME280;8055;51.930;8.840;2023-12-20T02:41:43;76451.72;;;-145.72;100.00
15914;BME280;8055;51.930;8.840;2023-12-20T02:44:08;76462.06;;;-145.72;100.00
15914;BME280;8055;51.930;8.840;2023-12-20T02:46:34;76468.28;;;-145.72;100.00
15914;BME280;8055;51.930;8.840;2023-12-20T02:48:59;76460.00;;;-145.72;100.00
15914;BME280;8055;51.930;8.840;2023-12-20T02:51:24;76457.94;;;-145.72;100.00
15914;BME280;8055;51.930;8.840;2023-12-20T02:53:50;76466.22;;;-145.72;100.00
15914;BME280;8055;51.930;8.840;2023-12-20T02:56:15;76462.06;;;-145.72;100.00
15914;BME280;8055;51.930;8.840;2023-12-20T02:58:40;76455.88;;;-145.72;100.00
15914;BME280;8055;51.930;8.840;2023-12-20T03:01:06;76457.94;;;-145.72;100.00
15914;BME280;8055;51.930;8.840;2023-12-20T03:03:32;76449.66;;;-145.72;100.00
15914;BME280;8055;51.930;8.840;2023-12-20T03:05:57;76460.00;;;-145.72;100.00
15914;BME280;8055;51.930;8.840;2023-12-20T03:08:22;76462.06;;;-145.72;100.00
15914;BME280;8055;51.930;8.840;2023-12-20T03:10:48;76466.22;;;-145.72;100.00
15914;BME280;8055;51.930;8.840;2023-12-20T03:13:13;76468.28;;;-145.72;100.00
15914;BME280;8055;51.930;8.840;2023-12-20T03:15:38;76457.94;;;-145.72;100.00
15914;BME280;8055;51.930;8.840;2023-12-20T03:18:04;76464.16;;;-145.72;100.00
15914;BME280;8055;51.930;8.840;2023-12-20T03:20:29;76470.34;;;-145.72;100.00
15914;BME280;8055;51.930;8.840;2023-12-20T03:22:58;76466.22;;;-145.72;100.00
15914;BME280;8055;51.930;8.840;2023-12-20T03:25:23;76460.00;;;-145.72;100.00
15914;BME280;8055;51.930;8.840;2023-12-20T03:27:49;76457.94;;;-145.72;100.00
15914;BME280;8055;51.930;8.840;2023-12-20T03:30:14;76451.72;;;-145.72;100.00
15914;BME280;8055;51.930;8.840;2023-12-20T03:32:39;76449.66;;;-145.72;100.00
15914;BME280;8055;51.930;8.840;2023-12-20T03:35:05;76441.38;;;-145.72;100.00
15914;BME280;8055;51.930;8.840;2023-12-20T03:37:31;76453.78;;;-145.72;100.00
15914;BME280;8055;51.930;8.840;2023-12-20T03:39:56;76457.94;;;-145.72;100.00
15914;BME280;8055;51.930;8.840;2023-12-20T03:42:21;76462.06;;;-145.72;100.00
15914;BME280;8055;51.930;8.840;2023-12-20T03:44:47;76468.28;;;-145.72;100.00
15914;BME280;8055;51.930;8.840;2023-12-20T03:47:12;76457.94;;;-145.72;100.00
15914;BME280;8055;51.930;8.840;2023-12-20T03:49:37;76447.59;;;-145.72;100.00
15914;BME280;8055;51.930;8.840;2023-12-20T03:52:04;76447.59;;;-145.72;100.00
15914;BME280;8055;51.930;8.840;2023-12-20T03:54:29;76451.72;;;-145.72;100.00
15914;BME280;8055;51.930;8.840;2023-12-20T03:56:55;76441.38;;;-145.72;100.00
15914;BME280;8055;51.930;8.840;2023-12-20T03:59:20;76445.53;;;-145.72;100.00
15914;BME280;8055;51.930;8.840;2023-12-20T04:01:45;76439.31;;;-145.72;100.00
15914;BME280;8055;51.930;8.840;2023-12-20T04:04:13;76441.38;;;-145.72;100.00
15914;BME280;8055;51.930;8.840;2023-12-20T04:06:38;76441.38;;;-145.72;100.00
15914;BME280;8055;51.930;8.840;2023-12-20T04:09:04;76449.66;;;-145.72;100.00
15914;BME280;8055;51.930;8.840;2023-12-20T04:11:29;76462.06;;;-145.72;100.00
15914;BME280;8055;51.930;8.840;2023-12-20T04:13:55;76455.88;;;-145.72;100.00
15914;BME280;8055;51.930;8.840;2023-12-20T04:16:20;76455.88;;;-145.72;100.00
15914;BME280;8055;51.930;8.840;2023-12-20T04:18:46;76462.06;;;-145.72;100.00
15914;BME280;8055;51.930;8.840;2023-12-20T04:21:11;76462.06;;;-145.72;100.00
15914;BME280;8055;51.930;8.840;2023-12-20T04:23:36;76453.78;;;-145.72;100.00
15914;BME280;8055;51.930;8.840;2023-12-20T04:26:02;76449.66;;;-145.72;100.00
15914;BME280;8055;51.930;8.840;2023-12-20T04:28:27;76449.66;;;-145.72;100.00
15914;BME280;8055;51.930;8.840;2023-12-20T04:30:55;76447.59;;;-145.72;100.00
15914;BME280;8055;51.930;8.840;2023-12-20T04:33:21;76451.72;;;-145.72;100.00
15914;BME280;8055;51.930;8.840;2023-12-20T04:35:46;76453.78;;;-145.72;100.00
15914;BME280;8055;51.930;8.840;2023-12-20T04:38:11;76457.94;;;-145.72;100.00
15914;BME280;8055;51.930;8.840;2023-12-20T04:40:37;76451.72;;;-145.72;100.00
15914;BME280;8055;51.930;8.840;2023-12-20T04:43:03;76449.66;;;-145.72;100.00
15914;BME280;8055;51.930;8.840;2023-12-20T04:45:28;76460.00;;;-145.72;100.00
15914;BME280;8055;51.930;8.840;2023-12-20T04:47:53;76457.94;;;-145.72;100.00
15914;BME280;8055;51.930;8.840;2023-12-20T04:50:19;76457.94;;;-145.72;100.00
15914;BME280;8055;51.930;8.840;2023-12-20T04:52:45;76443.44;;;-145.72;100.00
15914;BME280;8055;51.930;8.840;2023-12-20T04:55:10;76445.53;;;-145.72;100.00
15914;BME280;8055;51.930;8.840;2023-12-20T04:57:35;76451.72;;;-145.72;100.00
15914;BME280;8055;51.930;8.840;2023-12-20T05:00:01;76464.16;;;-145.72;100.00
15914;BME280;8055;51.930;8.840;2023-12-20T05:02:26;76451.72;;;-145.72;100.00
15914;BME280;8055;51.930;8.840;2023-12-20T05:04:52;76449.66;;;-145.72;100.00
15914;BME280;8055;51.930;8.840;2023-12-20T05:07:17;76457.94;;;-145.72;100.00
15914;BME280;8055;51.930;8.840;2023-12-20T05:09:42;76457.94;;;-145.72;100.00
15914;BME280;8055;51.930;8.840;2023-12-20T05:12:08;76445.53;;;-145.72;100.00
15914;BME280;8055;51.930;8.840;2023-12-20T05:14:33;76445.53;;;-145.72;100.00
15914;BME280;8055;51.930;8.840;2023-12-20T05:16:59;76455.88;;;-145.72;100.00
15914;BME280;8055;51.930;8.840;2023-12-20T05:19:24;76457.94;;;-145.72;100.00
15914;BME280;8055;51.930;8.840;2023-12-20T05:21:50;76462.06;;;-145.72;100.00
15914;BME280;8055;51.930;8.840;2023-12-20T05:24:15;76462.06;;;-145.72;100.00
15914;BME280;8055;51.930;8.840;2023-12-20T05:26:41;76445.53;;;-145.72;100.00
15914;BME280;8055;51.930;8.840;2023-12-20T05:29:06;76441.38;;;-145.72;100.00
15914;BME280;8055;51.930;8.840;2023-12-20T05:31:31;76439.31;;;-145.72;100.00
15914;BME280;8055;51.930;8.840;2023-12-20T05:33:57;76439.31;;;-145.72;100.00
15914;BME280;8055;51.930;8.840;2023-12-20T05:36:23;76437.25;;;-145.72;100.00
15914;BME280;8055;51.930;8.840;2023-12-20T05:38:48;76441.38;;;-145.72;100.00
15914;BME280;8055;51.930;8.840;2023-12-20T05:41:14;76426.91;;;-145.72;100.00
15914;BME280;8055;51.930;8.840;2023-12-20T05:43:39;76424.81;;;-145.72;100.00
15914;BME280;8055;51.930;8.840;2023-12-20T05:46:05;76422.75;;;-145.72;100.00
15914;BME280;8055;51.930;8.840;2023-12-20T05:48:30;76428.97;;;-145.72;100.00
15914;BME280;8055;51.930;8.840;2023-12-20T05:50:56;76439.31;;;-145.72;100.00
15914;BME280;8055;51.930;8.840;2023-12-20T05:53:21;76441.38;;;-145.72;100.00
15914;BME280;8055;51.930;8.840;2023-12-20T05:55:46;76449.66;;;-145.72;100.00
15914;BME280;8055;51.930;8.840;2023-12-20T05:58:12;76437.25;;;-145.72;100.00
15914;BME280;8055;51.930;8.840;2023-12-20T06:00:37;76441.38;;;-145.72;100.00
15914;BME280;8055;51.930;8.840;2023-12-20T06:03:03;76441.38;;;-145.72;100.00
15914;BME280;8055;51.930;8.840;2023-12-20T06:05:30;76443.44;;;-145.72;100.00
15914;BME280;8055;51.930;8.840;2023-12-20T06:07:55;76453.78;;;-145.72;100.00
15914;BME280;8055;51.930;8.840;2023-12-20T06:10:22;76449.66;;;-145.72;100.00
15914;BME280;8055;51.930;8.840;2023-12-20T06:12:48;76445.53;;;-145.72;100.00
15914;BME280;8055;51.930;8.840;2023-12-20T06:15:15;76447.59;;;-145.72;100.00
15914;BME280;8055;51.930;8.840;2023-12-20T06:17:40;76439.31;;;-145.72;100.00
15914;BME280;8055;51.930;8.840;2023-12-20T06:20:07;76449.66;;;-145.72;100.00
15914;BME280;8055;51.930;8.840;2023-12-20T06:22:34;76466.22;;;-145.72;100.00
15914;BME280;8055;51.930;8.840;2023-12-20T06:24:59;76464.16;;;-145.72;100.00
15914;BME280;8055;51.930;8.840;2023-12-20T06:27:25;76453.78;;;-145.72;100.00
15914;BME280;8055;51.930;8.840;2023-12-20T06:29:50;76464.16;;;-145.72;100.00
15914;BME280;8055;51.930;8.840;2023-12-20T06:32:16;76462.06;;;-145.72;100.00
15914;BME280;8055;51.930;8.840;2023-12-20T06:34:41;76474.50;;;-145.72;100.00
15914;BME280;8055;51.930;8.840;2023-12-20T06:37:06;76468.28;;;-145.72;100.00
15914;BME280;8055;51.930;8.840;2023-12-20T06:39:32;76460.00;;;-145.72;100.00
15914;BME280;8055;51.930;8.840;2023-12-20T06:41:59;76466.22;;;-145.72;100.00
15914;BME280;8055;51.930;8.840;2023-12-20T06:44:24;76476.56;;;-145.72;100.00
15914;BME280;8055;51.930;8.840;2023-12-20T06:46:50;76466.22;;;-145.72;100.00
15914;BME280;8055;51.930;8.840;2023-12-20T06:49:15;76470.34;;;-145.72;100.00
15914;BME280;8055;51.930;8.840;2023-12-20T06:51:40;76478.63;;;-145.72;100.00
15914;BME280;8055;51.930;8.840;2023-12-20T06:54:06;76470.34;;;-145.72;100.00
15914;BME280;8055;51.930;8.840;2023-12-20T06:56:32;76476.56;;;-145.72;100.00
15914;BME280;8055;51.930;8.840;2023-12-20T06:58:57;76474.50;;;-145.72;100.00
15914;BME280;8055;51.930;8.840;2023-12-20T07:01:23;76482.78;;;-145.72;100.00
15914;BME280;8055;51.930;8.840;2023-12-20T07:03:48;76472.41;;;-145.72;100.00
15914;BME280;8055;51.930;8.840;2023-12-20T07:06:14;76462.06;;;-145.72;100.00
15914;BME280;8055;51.930;8.840;2023-12-20T07:08:41;76474.50;;;-145.72;100.00
15914;BME280;8055;51.930;8.840;2023-12-20T07:11:07;76457.94;;;-145.72;100.00
15914;BME280;8055;51.930;8.840;2023-12-20T07:13:32;76462.06;;;-145.72;100.00
15914;BME280;8055;51.930;8.840;2023-12-20T07:15:57;76462.06;;;-145.72;100.00
15914;BME280;8055;51.930;8.840;2023-12-20T07:18:23;76466.22;;;-145.72;100.00
15914;BME280;8055;51.930;8.840;2023-12-20T07:20:48;76460.00;;;-145.72;100.00
15914;BME280;8055;51.930;8.840;2023-12-20T07:23:14;76451.72;;;-145.72;100.00
15914;BME280;8055;51.930;8.840;2023-12-20T07:25:39;76466.22;;;-145.72;100.00
15914;BME280;8055;51.930;8.840;2023-12-20T07:28:05;76468.28;;;-145.72;100.00
15914;BME280;8055;51.930;8.840;2023-12-20T07:30:30;76449.66;;;-145.72;100.00
15914;BME280;8055;51.930;8.840;2023-12-20T07:32:55;76447.59;;;-145.72;100.00
15914;BME280;8055;51.930;8.840;2023-12-20T07:35:22;76443.44;;;-145.72;100.00
15914;BME280;8055;51.930;8.840;2023-12-20T07:37:48;76451.72;;;-145.72;100.00
15914;BME280;8055;51.930;8.840;2023-12-20T07:40:13;76455.88;;;-145.72;100.00
15914;BME280;8055;51.930;8.840;2023-12-20T07:42:39;76445.53;;;-145.72;100.00
15914;BME280;8055;51.930;8.840;2023-12-20T07:45:04;76451.72;;;-145.72;100.00
15914;BME280;8055;51.930;8.840;2023-12-20T07:47:30;76449.66;;;-145.72;100.00
15914;BME280;8055;51.930;8.840;2023-12-20T07:49:55;76445.53;;;-145.72;100.00
15914;BME280;8055;51.930;8.840;2023-12-20T07:52:21;76445.53;;;-145.72;100.00
15914;BME280;8055;51.930;8.840;2023-12-20T07:54:47;76437.25;;;-145.72;100.00
15914;BME280;8055;51.930;8.840;2023-12-20T07:57:13;76437.25;;;-145.72;100.00
15914;BME280;8055;51.930;8.840;2023-12-20T07:59:38;76431.03;;;-145.72;100.00
15914;BME280;8055;51.930;8.840;2023-12-20T08:02:04;76428.97;;;-145.72;100.00
15914;BME280;8055;51.930;8.840;2023-12-20T08:04:29;76433.09;;;-145.72;100.00
15914;BME280;8055;51.930;8.840;2023-12-20T08:06:55;76431.03;;;-145.72;100.00
15914;BME280;8055;51.930;8.840;2023-12-20T08:09:20;76435.16;;;-145.72;100.00
15914;BME280;8055;51.930;8.840;2023-12-20T08:11:48;76435.16;;;-145.72;100.00
15914;BME280;8055;51.930;8.840;2023-12-20T08:14:14;76441.38;;;-145.72;100.00
15914;BME280;8055;51.930;8.840;2023-12-20T08:16:40;76453.78;;;-145.72;100.00
15914;BME280;8055;51.930;8.840;2023-12-20T08:19:06;76428.97;;;-145.72;100.00
15914;BME280;8055;51.930;8.840;2023-12-20T08:21:31;76437.25;;;-145.72;100.00
15914;BME280;8055;51.930;8.840;2023-12-20T08:23:56;76435.16;;;-145.72;100.00
15914;BME280;8055;51.930;8.840;2023-12-20T08:26:22;76437.25;;;-145.72;100.00
15914;BME280;8055;51.930;8.840;2023-12-20T08:28:48;76439.31;;;-145.72;100.00
15914;BME280;8055;51.930;8.840;2023-12-20T08:31:15;76441.38;;;-145.72;100.00
15914;BME280;8055;51.930;8.840;2023-12-20T08:33:41;76414.47;;;-145.72;100.00
15914;BME280;8055;51.930;8.840;2023-12-20T08:36:07;76414.47;;;-145.72;100.00
15914;BME280;8055;51.930;8.840;2023-12-20T08:38:32;76416.53;;;-145.72;100.00
15914;BME280;8055;51.930;8.840;2023-12-20T08:40:57;76412.41;;;-145.72;100.00
15914;BME280;8055;51.930;8.840;2023-12-20T08:43:22;76408.25;;;-145.72;100.00
15914;BME280;8055;51.930;8.840;2023-12-20T08:45:48;76404.13;;;-145.72;100.00
15914;BME280;8055;51.930;8.840;2023-12-20T08:48:13;76395.84;;;-145.72;100.00
15914;BME280;8055;51.930;8.840;2023-12-20T08:50:38;76387.56;;;-145.72;100.00
15914;BME280;8055;51.930;8.840;2023-12-20T08:53:04;76397.91;;;-145.72;100.00
15914;BME280;8055;51.930;8.840;2023-12-20T08:55:29;76408.25;;;-145.72;100.00
15914;BME280;8055;51.930;8.840;2023-12-20T08:57:56;76400.00;;;-145.72;100.00
15914;BME280;8055;51.930;8.840;2023-12-20T09:00:21;76404.13;;;-145.72;100.00
15914;BME280;8055;51.930;8.840;2023-12-20T09:02:49;76406.19;;;-145.72;100.00
15914;BME280;8055;51.930;8.840;2023-12-20T09:05:15;76389.63;;;-145.72;100.00
15914;BME280;8055;51.930;8.840;2023-12-20T09:07:40;76408.25;;;-145.72;100.00
15914;BME280;8055;51.930;8.840;2023-12-20T09:10:06;76391.72;;;-145.72;100.00
15914;BME280;8055;51.930;8.840;2023-12-20T09:12:31;76391.72;;;-145.72;100.00
15914;BME280;8055;51.930;8.840;2023-12-20T09:14:57;76402.06;;;-145.72;100.00
15914;BME280;8055;51.930;8.840;2023-12-20T09:17:22;76412.41;;;-145.72;100.00
15914;BME280;8055;51.930;8.840;2023-12-20T09:19:48;76414.47;;;-145.72;100.00
15914;BME280;8055;51.930;8.840;2023-12-20T09:22:13;76400.00;;;-145.72;100.00
15914;BME280;8055;51.930;8.840;2023-12-20T09:24:39;76391.72;;;-145.72;100.00
15914;BME280;8055;51.930;8.840;2023-12-20T09:27:05;76393.78;;;-145.72;100.00
15914;BME280;8055;51.930;8.840;2023-12-20T09:29:30;76377.22;;;-145.72;100.00
15914;BME280;8055;51.930;8.840;2023-12-20T09:31:56;76373.09;;;-145.72;100.00
15914;BME280;8055;51.930;8.840;2023-12-20T09:34:23;76389.63;;;-145.72;100.00
15914;BME280;8055;51.930;8.840;2023-12-20T09:36:48;76379.28;;;-145.72;100.00
15914;BME280;8055;51.930;8.840;2023-12-20T09:39:14;76379.28;;;-145.72;100.00
15914;BME280;8055;51.930;8.840;2023-12-20T09:41:43;76379.28;;;-145.72;100.00
15914;BME280;8055;51.930;8.840;2023-12-20T09:44:14;76373.09;;;-145.72;100.00
15914;BME280;8055;51.930;8.840;2023-12-20T09:46:43;76375.16;;;-145.72;100.00
15914;BME280;8055;51.930;8.840;2023-12-20T09:49:10;76368.94;;;-145.72;100.00
15914;BME280;8055;51.930;8.840;2023-12-20T09:51:36;76352.38;;;-145.72;100.00
15914;BME280;8055;51.930;8.840;2023-12-20T09:54:03;76360.66;;;-145.72;100.00
15914;BME280;8055;51.930;8.840;2023-12-20T09:56:29;76360.66;;;-145.72;100.00
15914;BME280;8055;51.930;8.840;2023-12-20T09:58:55;76360.66;;;-145.72;100.00
15914;BME280;8055;51.930;8.840;2023-12-20T10:01:21;76364.81;;;-145.72;100.00
15914;BME280;8055;51.930;8.840;2023-12-20T10:03:46;76337.91;;;-145.72;100.00
15914;BME280;8055;51.930;8.840;2023-12-20T10:06:12;76331.69;;;-145.72;100.00
15914;BME280;8055;51.930;8.840;2023-12-20T10:08:38;76339.97;;;-145.72;100.00
15914;BME280;8055;51.930;8.840;2023-12-20T10:11:04;76346.19;;;-145.72;100.00
15914;BME280;8055;51.930;8.840;2023-12-20T10:13:30;76337.91;;;-145.72;100.00
15914;BME280;8055;51.930;8.840;2023-12-20T10:15:56;76337.91;;;-145.72;100.00
15914;BME280;8055;51.930;8.840;2023-12-20T10:18:22;76333.75;;;-145.72;100.00
15914;BME280;8055;51.930;8.840;2023-12-20T10:20:48;76333.75;;;-145.72;100.00
15914;BME280;8055;51.930;8.840;2023-12-20T10:23:15;76321.34;;;-145.72;100.00
15914;BME280;8055;51.930;8.840;2023-12-20T10:25:41;76323.41;;;-145.72;100.00
15914;BME280;8055;51.930;8.840;2023-12-20T10:28:16;76325.47;;;-145.72;100.00
15914;BME280;8055;51.930;8.840;2023-12-20T10:30:47;76308.94;;;-145.72;100.00
15914;BME280;8055;51.930;8.840;2023-12-20T10:33:13;76313.06;;;-145.72;100.00
15914;BME280;8055;51.930;8.840;2023-12-20T10:35:39;76302.72;;;-145.72;100.00
15914;BME280;8055;51.930;8.840;2023-12-20T10:38:06;76308.94;;;-145.72;100.00
15914;BME280;8055;51.930;8.840;2023-12-20T10:40:35;76294.44;;;-145.72;100.00
15914;BME280;8055;51.930;8.840;2023-12-20T10:43:04;76304.78;;;-145.72;100.00
15914;BME280;8055;51.930;8.840;2023-12-20T10:45:30;76284.09;;;-145.72;100.00
15914;BME280;8055;51.930;8.840;2023-12-20T10:47:56;76286.16;;;-145.72;100.00
15914;BME280;8055;51.930;8.840;2023-12-20T10:50:24;76298.59;;;-145.72;100.00
15914;BME280;8055;51.930;8.840;2023-12-20T10:52:50;76319.28;;;-145.72;100.00
15914;BME280;8055;51.930;8.840;2023-12-20T10:55:21;76319.28;;;-145.72;100.00
15914;BME280;8055;51.930;8.840;2023-12-20T10:57:47;76315.13;;;-145.72;100.00
15914;BME280;8055;51.930;8.840;2023-12-20T11:00:17;76317.22;;;-145.72;100.00
15914;BME280;8055;51.930;8.840;2023-12-20T11:02:43;76315.13;;;-145.72;100.00
15914;BME280;8055;51.930;8.840;2023-12-20T11:08:12;76304.78;;;-145.72;100.00
15914;BME280;8055;51.930;8.840;2023-12-20T11:10:57;76311.00;;;-145.72;100.00
15914;BME280;8055;51.930;8.840;2023-12-20T11:14:05;76323.41;;;-145.72;100.00
15914;BME280;8055;51.930;8.840;2023-12-20T11:16:37;76321.34;;;-145.72;100.00
15914;BME280;8055;51.930;8.840;2023-12-20T11:19:05;76317.22;;;-145.72;100.00
15914;BME280;8055;51.930;8.840;2023-12-20T11:21:31;76306.84;;;-145.72;100.00
15914;BME280;8055;51.930;8.840;2023-12-20T11:23:56;76311.00;;;-145.72;100.00
15914;BME280;8055;51.930;8.840;2023-12-20T11:26:28;76317.22;;;-145.72;100.00
15914;BME280;8055;51.930;8.840;2023-12-20T11:29:12;76300.66;;;-145.72;100.00
15914;BME280;8055;51.930;8.840;2023-12-20T11:31:42;76290.31;;;-145.72;100.00
15914;BME280;8055;51.930;8.840;2023-12-20T11:34:14;76302.72;;;-145.72;100.00
15914;BME280;8055;51.930;8.840;2023-12-20T11:36:42;76302.72;;;-145.72;100.00
15914;BME280;8055;51.930;8.840;2023-12-20T11:39:07;76292.38;;;-145.72;100.00
15914;BME280;8055;51.930;8.840;2023-12-20T11:41:36;76292.38;;;-145.72;100.00
15914;BME280;8055;51.930;8.840;2023-12-20T11:44:04;76296.50;;;-145.72;100.00
15914;BME280;8055;51.930;8.840;2023-12-20T11:46:31;76292.38;;;-145.72;100.00
15914;BME280;8055;51.930;8.840;2023-12-20T11:48:56;76263.41;;;-145.72;100.00
15914;BME280;8055;51.930;8.840;2023-12-20T11:51:21;76242.72;;;-145.72;100.00
15914;BME280;8055;51.930;8.840;2023-12-20T11:53:51;76219.94;;;-145.72;100.00
15914;BME280;8055;51.930;8.840;2023-12-20T11:56:17;76228.22;;;-145.72;100.00
15914;BME280;8055;51.930;8.840;2023-12-20T11:58:42;76215.81;;;-145.72;100.00
15914;BME280;8055;51.930;8.840;2023-12-20T12:01:08;76215.81;;;-145.72;100.00
15914;BME280;8055;51.930;8.840;2023-12-20T12:03:33;76203.38;;;-145.72;100.00
15914;BME280;8055;51.930;8.840;2023-12-20T12:05:59;76217.88;;;-145.72;100.00
15914;BME280;8055;51.930;8.840;2023-12-20T12:08:26;76205.44;;;-145.72;100.00
15914;BME280;8055;51.930;8.840;2023-12-20T12:10:51;76209.59;;;-145.72;100.00
15914;BME280;8055;51.930;8.840;2023-12-20T12:13:17;76201.31;;;-145.72;100.00
15914;BME280;8055;51.930;8.840;2023-12-20T12:15:42;76209.59;;;-145.72;100.00
15914;BME280;8055;51.930;8.840;2023-12-20T12:18:08;76203.38;;;-145.72;100.00
15914;BME280;8055;51.930;8.840;2023-12-20T12:20:34;76209.59;;;-145.72;100.00
15914;BME280;8055;51.930;8.840;2023-12-20T12:23:01;76201.31;;;-145.72;100.00
15914;BME280;8055;51.930;8.840;2023-12-20T12:25:28;76205.44;;;-145.72;100.00
15914;BME280;8055;51.930;8.840;2023-12-20T12:27:55;76201.31;;;-145.72;100.00
15914;BME280;8055;51.930;8.840;2023-12-20T12:30:21;76193.03;;;-145.72;100.00
15914;BME280;8055;51.930;8.840;2023-12-20T12:32:46;76201.31;;;-145.72;100.00
15914;BME280;8055;51.930;8.840;2023-12-20T12:35:12;76201.31;;;-145.72;100.00
15914;BME280;8055;51.930;8.840;2023-12-20T12:37:38;76193.03;;;-145.72;100.00